OOCL Taipei — VRNR6 — position and weather

sailwx.info

Track history (hours):
 
Tides and Currents Weather Stations Pressure Air Temp Water Temp Dewpoint Dewpoint Depression Visibility Wind Speed Wind Dir Waves Ship Positions

OOCL Taipei

Last reported at 2018-Jul-10 21:18 UTC. Time now 2018-Jul-17 05:24 UTC.
Position N 34°15' W 125°46'.

Length 335 m; draft 12 m.

Type: Cargo ship. MMSI: 477067800.

Date/timePositionNaut miles runAvg speedWind from/ knotsBaromVisibWave heightAir tempDewpointWater temp
2018-Jul-10 21:18N 34°15' W 125°46'717.6
2018-Jul-10 20:54N 34°11' W 125°38'1317.5
2018-Jul-10 20:10N 34°04' W 125°25'316.6
2018-Jul-10 19:59N 34°03' W 125°22'814.7
2018-Jul-10 19:28N 33°59' W 125°14'714.5
2018-Jul-10 19:00N 33°56' W 125°07'714.7
2018-Jul-10 18:30N 33°52' W 124°59'814.9
2018-Jul-10 18:00N 33°48' W 124°51'815.2
2018-Jul-10 17:29N 33°44' W 124°43'715.1
2018-Jul-10 17:01N 33°40' W 124°36'612.3
2018-Jul-10 16:30N 33°38' W 124°29'612.9
2018-Jul-10 16:00N 33°38' W 124°21'612.7
2018-Jul-10 15:30N 33°38' W 124°14'612.7
2018-Jul-10 15:00N 33°38' W 124°06'612.6
2018-Jul-10 14:30N 33°38' W 123°58'612.4
2018-Jul-10 14:00N 33°38' W 123°51'612.2
2018-Jul-10 13:30N 33°38' W 123°44'612.2
2018-Jul-10 13:00N 33°38' W 123°36'612.2
2018-Jul-10 12:30N 33°38' W 123°29'612.1
2018-Jul-10 12:00N 33°38' W 123°22'612.2
2018-Jul-10 11:30N 33°38' W 123°14'612.1
2018-Jul-10 11:00N 33°38' W 123°07'612.0
2018-Jul-10 10:30N 33°38' W 123°00'612.1
2018-Jul-10 10:00N 33°38' W 122°53'611.9
2018-Jul-10 09:30N 33°38' W 122°46'611.8
2018-Jul-10 09:00N 33°38' W 122°39'611.8
2018-Jul-10 08:30N 33°38' W 122°31'611.6
2018-Jul-10 08:00N 33°38' W 122°24'611.5
2018-Jul-10 07:30N 33°38' W 122°18'611.6
2018-Jul-10 07:00N 33°38' W 122°11'611.7
2018-Jul-10 06:30N 33°38' W 122°04'611.8
2018-Jul-10 06:00N 33°38' W 121°56'611.6
2018-Jul-10 05:30N 33°38' W 121°50'611.6
2018-Jul-10 05:01N 33°38' W 121°43'611.9
2018-Jul-10 04:30N 33°38' W 121°36'612.0
2018-Jul-10 04:00N 33°38' W 121°28'612.1
2018-Jul-10 03:30N 33°38' W 121°21'612.2
2018-Jul-10 03:00N 33°37' W 121°14'612.3
2018-Jul-10 02:30N 33°37' W 121°06'612.4
2018-Jul-10 02:00N 33°38' W 120°59'612.5
2018-Jul-10 01:30N 33°38' W 120°51'612.4
2018-Jul-10 01:00N 33°37' W 120°44'612.2
2018-Jul-10 00:30N 33°37' W 120°37'5 9.7
2018-Jul-10 00:00N 33°37' W 120°31'4 8.9
2018-Jul-09 23:30N 33°37' W 120°25'5 9.4
2018-Jul-09 23:00N 33°37' W 120°20'5 9.4
2018-Jul-09 22:30N 33°37' W 120°14'4 8.9
2018-Jul-09 22:00N 33°38' W 120°09'5 9.0
2018-Jul-09 21:30N 33°38' W 120°03'5 9.3
2018-Jul-09 21:00N 33°38' W 119°58'5 9.6
2018-Jul-09 20:30N 33°38' W 119°52'612.6
2018-Jul-09 20:00N 33°38' W 119°44'613.2
2018-Jul-09 19:30N 33°38' W 119°37'612.9
2018-Jul-09 19:01N 33°38' W 119°29'612.8
2018-Jul-09 18:30N 33°38' W 119°21'712.6
2018-Jul-09 17:59N 33°38' W 119°13'612.3
2018-Jul-09 17:30N 33°38' W 119°06'511.0
2018-Jul-09 17:00N 33°37' W 118°60'611.2
2018-Jul-09 16:30N 33°37' W 118°53'611.1
2018-Jul-09 16:00N 33°37' W 118°46'611.1
2018-Jul-09 15:30N 33°36' W 118°40'611.0
2018-Jul-09 15:00N 33°36' W 118°33'611.2
2018-Jul-09 14:30N 33°36' W 118°26'611.4
2018-Jul-09 14:00N 33°35' W 118°20'510.3
2018-Jul-09 13:30N 33°38' W 118°14'510.1
2018-Jul-09 13:00N 33°42' W 118°11'3 6.0
2018-Jul-09 12:30N 33°45' W 118°13'1 1.4
2018-Jul-09 11:59N 33°46' W 118°13'0 0.0
2018-Jul-09 11:29N 33°46' W 118°13'0 0.0
2018-Jul-09 10:59N 33°46' W 118°13'0 0.0
2018-Jul-09 10:29N 33°46' W 118°13'0 0.0
2018-Jul-09 09:59N 33°46' W 118°13'0 0.0
2018-Jul-09 09:29N 33°46' W 118°13'0 0.0
2018-Jul-09 08:59N 33°46' W 118°13'0 0.0
2018-Jul-09 08:29N 33°46' W 118°13'0 0.0
2018-Jul-09 07:59N 33°46' W 118°13'0 0.0
2018-Jul-09 07:29N 33°46' W 118°13'0 0.0
2018-Jul-09 06:59N 33°46' W 118°13'0 0.0
2018-Jul-09 06:29N 33°46' W 118°13'0 0.0
2018-Jul-09 05:59N 33°46' W 118°13'0 0.0
2018-Jul-09 05:29N 33°46' W 118°13'0 0.0
2018-Jul-09 04:59N 33°46' W 118°13'0 0.0
2018-Jul-09 04:29N 33°46' W 118°13'0 0.0
2018-Jul-09 03:59N 33°46' W 118°13'0 0.0
2018-Jul-09 03:29N 33°46' W 118°13'0 0.0
2018-Jul-09 02:59N 33°46' W 118°13'0 0.0
2018-Jul-09 02:29N 33°46' W 118°13'0 0.0
2018-Jul-09 01:59N 33°46' W 118°13'0 0.0
2018-Jul-09 01:29N 33°46' W 118°13'0 0.0
2018-Jul-09 00:59N 33°46' W 118°13'0 0.0
2018-Jul-09 00:29N 33°46' W 118°13'0 0.0
2018-Jul-08 23:59N 33°46' W 118°13'0 0.0
2018-Jul-08 23:29N 33°46' W 118°13'0 0.0
2018-Jul-08 22:59N 33°46' W 118°13'0 0.0
2018-Jul-08 22:29N 33°46' W 118°13'0 0.0
2018-Jul-08 21:59N 33°46' W 118°13'0 0.0
2018-Jul-08 21:29N 33°46' W 118°13'0 0.0
2018-Jul-08 20:59N 33°46' W 118°13'0 0.0
2018-Jul-08 20:29N 33°46' W 118°13'0 0.0
2018-Jul-08 19:59N 33°46' W 118°13'0 0.0
2018-Jul-08 19:29N 33°46' W 118°13'0 0.0
2018-Jul-08 18:59N 33°46' W 118°13'0 0.0
2018-Jul-08 18:29N 33°46' W 118°13'0 0.0
2018-Jul-08 17:59N 33°46' W 118°13'0 0.0
2018-Jul-08 17:29N 33°46' W 118°13'0 0.0
2018-Jul-08 16:59N 33°46' W 118°13'0 0.0
2018-Jul-08 16:29N 33°46' W 118°13'0 0.0
2018-Jul-08 15:59N 33°46' W 118°13'0 0.0
2018-Jul-08 15:29N 33°46' W 118°13'0 0.0
2018-Jul-08 14:59N 33°46' W 118°13'0 0.1
2018-Jul-08 14:29N 33°46' W 118°13'0 0.0
2018-Jul-08 13:59N 33°46' W 118°13'0 0.0
2018-Jul-08 13:29N 33°46' W 118°13'0 0.0
2018-Jul-08 12:59N 33°46' W 118°13'0 0.1
2018-Jul-08 12:29N 33°46' W 118°13'0 0.1
2018-Jul-08 11:59N 33°46' W 118°13'0 0.0
2018-Jul-08 11:29N 33°46' W 118°13'0 0.0
2018-Jul-08 10:59N 33°46' W 118°13'0 0.0
2018-Jul-08 10:29N 33°46' W 118°13'0 0.0
2018-Jul-08 09:59N 33°46' W 118°13'0 0.0
2018-Jul-08 09:26N 33°46' W 118°13'0 0.1
2018-Jul-08 08:59N 33°46' W 118°13'0 0.0
2018-Jul-08 08:29N 33°46' W 118°13'0 0.1
2018-Jul-08 07:59N 33°46' W 118°13'0 0.1
2018-Jul-08 07:29N 33°46' W 118°13'0 0.0
2018-Jul-08 06:59N 33°46' W 118°13'0 0.0
2018-Jul-08 06:29N 33°46' W 118°13'0 0.0
2018-Jul-08 05:59N 33°46' W 118°13'0 0.0
2018-Jul-08 05:29N 33°46' W 118°13'0 0.1
2018-Jul-08 04:59N 33°46' W 118°13'0 0.1
2018-Jul-08 04:29N 33°46' W 118°13'0 0.1
2018-Jul-08 03:59N 33°46' W 118°13'0 0.0
2018-Jul-08 03:29N 33°46' W 118°13'0 0.0
2018-Jul-08 02:59N 33°46' W 118°13'0 0.0
2018-Jul-08 02:29N 33°46' W 118°13'0 0.0
2018-Jul-08 01:59N 33°46' W 118°13'0 0.0
2018-Jul-08 01:29N 33°46' W 118°13'0 0.0
2018-Jul-08 00:59N 33°46' W 118°13'0 0.0
2018-Jul-08 00:29N 33°46' W 118°13'0 0.0
2018-Jul-07 23:59N 33°46' W 118°13'0 0.0
2018-Jul-07 23:29N 33°46' W 118°13'0 0.0
2018-Jul-07 22:59N 33°46' W 118°13'0 0.0
2018-Jul-07 22:29N 33°46' W 118°13'0 0.0
2018-Jul-07 21:59N 33°46' W 118°13'0 0.1
2018-Jul-07 21:31N 33°46' W 118°13'0 0.0
2018-Jul-07 21:01N 33°46' W 118°13'0 0.0
2018-Jul-07 20:28N 33°46' W 118°13'0 0.0
2018-Jul-07 19:58N 33°46' W 118°13'0 0.0
2018-Jul-07 19:31N 33°46' W 118°13'0 0.1
2018-Jul-07 19:01N 33°46' W 118°13'0 0.0
2018-Jul-07 18:28N 33°46' W 118°13'0 0.0
2018-Jul-07 17:58N 33°46' W 118°13'0 0.0
2018-Jul-07 17:28N 33°46' W 118°13'0 0.0
2018-Jul-07 16:58N 33°46' W 118°13'0 0.0
2018-Jul-07 16:28N 33°46' W 118°13'0 0.0
2018-Jul-07 15:58N 33°46' W 118°13'0 0.0
2018-Jul-07 15:31N 33°46' W 118°13'0 0.0
2018-Jul-07 15:01N 33°46' W 118°13'0 0.0
2018-Jul-07 14:31N 33°46' W 118°13'0 0.0
2018-Jul-07 14:01N 33°46' W 118°13'0 0.0
2018-Jul-07 13:28N 33°46' W 118°13'0 0.0
2018-Jul-07 13:01N 33°46' W 118°13'0 0.0
2018-Jul-07 12:31N 33°46' W 118°13'0 0.1
2018-Jul-07 11:58N 33°46' W 118°13'0 0.0
2018-Jul-07 11:28N 33°46' W 118°13'0 0.0
2018-Jul-07 10:58N 33°46' W 118°13'0 0.0
2018-Jul-07 10:28N 33°46' W 118°13'0 0.0
2018-Jul-07 10:01N 33°46' W 118°13'0 0.0
2018-Jul-07 09:31N 33°46' W 118°13'0 0.0
2018-Jul-07 08:58N 33°46' W 118°13'0 0.0
2018-Jul-07 08:31N 33°46' W 118°13'0 0.0
2018-Jul-07 08:01N 33°46' W 118°13'0 0.0
2018-Jul-07 07:28N 33°46' W 118°13'0 0.0
2018-Jul-07 06:58N 33°46' W 118°13'0 0.0
2018-Jul-07 06:31N 33°46' W 118°13'0 0.0
2018-Jul-07 05:58N 33°46' W 118°13'0 0.0
2018-Jul-07 05:31N 33°46' W 118°13'0 0.0
2018-Jul-07 04:58N 33°46' W 118°13'0 0.1
2018-Jul-07 04:31N 33°46' W 118°13'0 0.0
2018-Jul-07 04:01N 33°46' W 118°13'0 0.0
2018-Jul-07 03:31N 33°46' W 118°13'0 0.0
2018-Jul-07 03:01N 33°46' W 118°13'0 0.0
2018-Jul-07 02:28N 33°46' W 118°13'0 0.1
2018-Jul-07 01:58N 33°46' W 118°13'0 0.0
2018-Jul-07 01:28N 33°46' W 118°13'0 0.0
2018-Jul-07 01:01N 33°46' W 118°13'0 0.0
2018-Jul-07 00:31N 33°46' W 118°13'0 0.1
2018-Jul-07 00:01N 33°46' W 118°13'0 0.0
2018-Jul-06 23:28N 33°46' W 118°13'0 0.0
2018-Jul-06 22:58N 33°46' W 118°13'0 0.0
2018-Jul-06 22:31N 33°46' W 118°13'0 0.0
2018-Jul-06 22:01N 33°46' W 118°13'0 0.0
2018-Jul-06 21:31N 33°46' W 118°13'0 0.0
2018-Jul-06 20:58N 33°46' W 118°13'0 0.0
2018-Jul-06 20:31N 33°46' W 118°13'0 0.0
2018-Jul-06 19:58N 33°46' W 118°13'0 0.1
2018-Jul-06 19:31N 33°46' W 118°13'0 0.1
2018-Jul-06 18:58N 33°46' W 118°13'0 0.1
2018-Jul-06 18:28N 33°46' W 118°13'0 0.1
2018-Jul-06 18:01N 33°46' W 118°13'0 0.0
2018-Jul-06 17:28N 33°46' W 118°13'0 0.0
2018-Jul-06 16:58N 33°46' W 118°13'0 0.0
2018-Jul-06 16:31N 33°46' W 118°13'0 0.0
2018-Jul-06 15:58N 33°46' W 118°13'0 0.0
2018-Jul-06 15:22N 33°46' W 118°13'0 0.0
2018-Jul-06 15:01N 33°46' W 118°13'0 0.0
2018-Jul-06 14:31N 33°46' W 118°13'0 0.0
2018-Jul-06 13:58N 33°46' W 118°13'0 0.0
2018-Jul-06 13:31N 33°46' W 118°13'0 0.0
2018-Jul-06 13:00N 33°46' W 118°13'1 2.8
2018-Jul-06 12:30N 33°44' W 118°12'5 9.5
2018-Jul-06 12:00N 33°40' W 118°11'3 6.5
2018-Jul-06 11:30N 33°37' W 118°13'4 8.8
2018-Jul-06 11:00N 33°35' W 118°18'510.0
2018-Jul-06 10:30N 33°35' W 118°24'4 8.9
2018-Jul-06 10:00N 33°35' W 118°29'0 0.2
2018-Jul-06 09:30N 33°35' W 118°29'0 0.5
2018-Jul-06 09:00N 33°35' W 118°30'2 4.7
2018-Jul-06 08:30N 33°35' W 118°33'5 9.4
2018-Jul-06 08:00N 33°36' W 118°38'611.2
2018-Jul-06 07:30N 33°36' W 118°45'611.1
2018-Jul-06 07:00N 33°37' W 118°51'510.2
2018-Jul-06 06:30N 33°37' W 118°58'5 9.9
2018-Jul-06 06:00N 33°38' W 119°03'5 9.9
2018-Jul-06 05:30N 33°38' W 119°09'5 9.8
2018-Jul-06 05:00N 33°38' W 119°15'510.1
2018-Jul-06 04:30N 33°38' W 119°21'510.1
2018-Jul-06 04:00N 33°38' W 119°27'5 9.9
2018-Jul-06 03:30N 33°38' W 119°33'510.0
2018-Jul-06 03:00N 33°38' W 119°39'510.3
2018-Jul-06 02:30N 33°38' W 119°46'510.9
2018-Jul-06 02:00N 33°38' W 119°52'611.3
2018-Jul-06 01:30N 33°38' W 119°59'511.0
2018-Jul-06 01:00N 33°38' W 120°06'510.8
2018-Jul-06 00:30N 33°38' W 120°12'510.2
2018-Jul-06 00:00N 33°38' W 120°18'510.6
2018-Jul-05 23:30N 33°38' W 120°24'510.6
2018-Jul-05 23:00N 33°38' W 120°31'510.7
2018-Jul-05 22:30N 33°38' W 120°37'612.4
2018-Jul-05 22:00N 33°38' W 120°45'612.4
2018-Jul-05 21:31N 33°38' W 120°52'612.1
2018-Jul-05 21:00N 33°38' W 120°60'612.3
2018-Jul-05 20:30N 33°38' W 121°07'612.1
2018-Jul-05 20:00N 33°38' W 121°14'612.1
2018-Jul-05 19:30N 33°38' W 121°21'612.1
2018-Jul-05 19:00N 33°38' W 121°29'612.0
2018-Jul-05 18:30N 33°38' W 121°36'611.6
2018-Jul-05 18:00N 33°38' W 121°43'4 7.1
2018-Jul-05 17:30N 33°38' W 121°47'612.6
2018-Jul-05 17:00N 33°38' W 121°55'612.6
2018-Jul-05 16:30N 33°38' W 122°02'612.4
2018-Jul-05 16:00N 33°38' W 122°10'612.4
2018-Jul-05 15:30N 33°38' W 122°17'612.8
2018-Jul-05 15:00N 33°38' W 122°25'612.8
2018-Jul-05 14:30N 33°38' W 122°32'1313.0
2018-Jul-05 13:30N 33°38' W 122°48'713.8
2018-Jul-05 13:00N 33°38' W 122°56'713.4
2018-Jul-05 12:30N 33°38' W 123°05'713.5
2018-Jul-05 12:00N 33°38' W 123°13'713.5
2018-Jul-05 11:30N 33°38' W 123°21'713.7
2018-Jul-05 11:00N 33°38' W 123°29'713.9
2018-Jul-05 10:30N 33°38' W 123°37'813.5
2018-Jul-05 09:55N 33°37' W 123°47'513.4
2018-Jul-05 09:30N 33°37' W 123°53'713.4
2018-Jul-05 09:00N 33°37' W 124°01'713.2
2018-Jul-05 08:30N 33°37' W 124°09'713.1
2018-Jul-05 08:01N 33°37' W 124°17'713.0
2018-Jul-05 07:30N 33°38' W 124°25'713.8
2018-Jul-05 07:00N 33°39' W 124°33'815.1
2018-Jul-05 06:30N 33°43' W 124°41'815.4
2018-Jul-05 05:58N 33°48' W 124°49'715.3
2018-Jul-05 05:31N 33°52' W 124°56'815.3
2018-Jul-05 05:01N 33°56' W 125°04'815.3
2018-Jul-05 04:31N 33°60' W 125°12'815.5
2018-Jul-05 04:01N 34°04' W 125°20'815.4
2018-Jul-05 03:31N 34°08' W 125°28'815.3
2018-Jul-05 03:00N 34°12' W 125°36'815.2
2018-Jul-05 02:30N 34°16' W 125°44'815.3
2018-Jul-05 02:00N 34°20' W 125°51'815.2
2018-Jul-05 01:30N 34°24' W 125°59'815.3
2018-Jul-05 00:58N 34°28' W 126°08'715.4
2018-Jul-05 00:31N 34°32' W 126°15'815.5
2018-Jul-05 00:00N 34°36' W 126°23'815.6
2018-Jul-04 23:30N 34°40' W 126°31'1015.5
2018-Jul-04 22:52N 34°45' W 126°42'615.5
2018-Jul-04 22:30N 34°48' W 126°48'1015.5
2018-Jul-04 21:53N 34°53' W 126°58'1715.6
2018-Jul-04 20:46N 35°02' W 127°16'2215.7
2018-Jul-04 19:22N 35°13' W 127°39'815.6
2018-Jul-04 18:52N 35°17' W 127°47'515.5
2018-Jul-04 18:30N 35°20' W 127°53'815.5
2018-Jul-04 18:00N 35°24' W 128°01'815.7
2018-Jul-04 17:30N 35°28' W 128°10'815.7
2018-Jul-04 16:58N 35°32' W 128°19'715.7
2018-Jul-04 16:30N 35°36' W 128°26'815.5
2018-Jul-04 16:00N 35°40' W 128°34'815.4
2018-Jul-04 15:30N 35°43' W 128°43'815.3
2018-Jul-04 15:00N 35°47' W 128°51'815.3
2018-Jul-04 14:30N 35°51' W 128°59'1115.1
2018-Jul-04 13:45N 35°56' W 129°11'415.1
2018-Jul-04 13:30N 35°58' W 129°15'2915.2
2018-Jul-04 11:35N 36°12' W 129°47'115.1
2018-Jul-04 11:30N 36°13' W 129°48'1415.3
2018-Jul-04 10:34N 36°20' W 130°04'115.6
2018-Jul-04 10:30N 36°20' W 130°05'3215.4
2018-Jul-04 08:24N 36°36' W 130°40'7015.6
2018-Jul-04 03:55N 37°09' W 131°57'615.1
2018-Jul-04 03:30N 37°12' W 132°04'  
Track history (hours):
 
Tides and Currents Weather Stations Pressure Air Temp Water Temp Dewpoint Dewpoint Depression Visibility Wind Speed Wind Dir Waves Ship Positions

OOCL Taipei

Last reported at 2018-Jul-10 21:18 UTC. Time now 2018-Jul-17 05:24 UTC.
Position N 34°15' W 125°46'.

Length 335 m; draft 12 m.

Type: Cargo ship. MMSI: 477067800.

Date/timePositionNaut miles runAvg speedWind from/ knotsBaromVisibWave heightAir tempDewpointWater temp
2018-Jul-10 21:18N 34°15' W 125°46'717.6
2018-Jul-10 20:54N 34°11' W 125°38'1317.5
2018-Jul-10 20:10N 34°04' W 125°25'316.6
2018-Jul-10 19:59N 34°03' W 125°22'814.7
2018-Jul-10 19:28N 33°59' W 125°14'714.5
2018-Jul-10 19:00N 33°56' W 125°07'714.7
2018-Jul-10 18:30N 33°52' W 124°59'814.9
2018-Jul-10 18:00N 33°48' W 124°51'815.2
2018-Jul-10 17:29N 33°44' W 124°43'715.1
2018-Jul-10 17:01N 33°40' W 124°36'612.3
2018-Jul-10 16:30N 33°38' W 124°29'612.9
2018-Jul-10 16:00N 33°38' W 124°21'612.7
2018-Jul-10 15:30N 33°38' W 124°14'612.7
2018-Jul-10 15:00N 33°38' W 124°06'612.6
2018-Jul-10 14:30N 33°38' W 123°58'612.4
2018-Jul-10 14:00N 33°38' W 123°51'612.2
2018-Jul-10 13:30N 33°38' W 123°44'612.2
2018-Jul-10 13:00N 33°38' W 123°36'612.2
2018-Jul-10 12:30N 33°38' W 123°29'612.1
2018-Jul-10 12:00N 33°38' W 123°22'612.2
2018-Jul-10 11:30N 33°38' W 123°14'612.1
2018-Jul-10 11:00N 33°38' W 123°07'612.0
2018-Jul-10 10:30N 33°38' W 123°00'612.1
2018-Jul-10 10:00N 33°38' W 122°53'611.9
2018-Jul-10 09:30N 33°38' W 122°46'611.8
2018-Jul-10 09:00N 33°38' W 122°39'611.8
2018-Jul-10 08:30N 33°38' W 122°31'611.6
2018-Jul-10 08:00N 33°38' W 122°24'611.5
2018-Jul-10 07:30N 33°38' W 122°18'611.6
2018-Jul-10 07:00N 33°38' W 122°11'611.7
2018-Jul-10 06:30N 33°38' W 122°04'611.8
2018-Jul-10 06:00N 33°38' W 121°56'611.6
2018-Jul-10 05:30N 33°38' W 121°50'611.6
2018-Jul-10 05:01N 33°38' W 121°43'611.9
2018-Jul-10 04:30N 33°38' W 121°36'612.0
2018-Jul-10 04:00N 33°38' W 121°28'612.1
2018-Jul-10 03:30N 33°38' W 121°21'612.2
2018-Jul-10 03:00N 33°37' W 121°14'612.3
2018-Jul-10 02:30N 33°37' W 121°06'612.4
2018-Jul-10 02:00N 33°38' W 120°59'612.5
2018-Jul-10 01:30N 33°38' W 120°51'612.4
2018-Jul-10 01:00N 33°37' W 120°44'612.2
2018-Jul-10 00:30N 33°37' W 120°37'5 9.7
2018-Jul-10 00:00N 33°37' W 120°31'4 8.9
2018-Jul-09 23:30N 33°37' W 120°25'5 9.4
2018-Jul-09 23:00N 33°37' W 120°20'5 9.4
2018-Jul-09 22:30N 33°37' W 120°14'4 8.9
2018-Jul-09 22:00N 33°38' W 120°09'5 9.0
2018-Jul-09 21:30N 33°38' W 120°03'5 9.3
2018-Jul-09 21:00N 33°38' W 119°58'5 9.6
2018-Jul-09 20:30N 33°38' W 119°52'612.6
2018-Jul-09 20:00N 33°38' W 119°44'613.2
2018-Jul-09 19:30N 33°38' W 119°37'612.9
2018-Jul-09 19:01N 33°38' W 119°29'612.8
2018-Jul-09 18:30N 33°38' W 119°21'712.6
2018-Jul-09 17:59N 33°38' W 119°13'612.3
2018-Jul-09 17:30N 33°38' W 119°06'511.0
2018-Jul-09 17:00N 33°37' W 118°60'611.2
2018-Jul-09 16:30N 33°37' W 118°53'611.1
2018-Jul-09 16:00N 33°37' W 118°46'611.1
2018-Jul-09 15:30N 33°36' W 118°40'611.0
2018-Jul-09 15:00N 33°36' W 118°33'611.2
2018-Jul-09 14:30N 33°36' W 118°26'611.4
2018-Jul-09 14:00N 33°35' W 118°20'510.3
2018-Jul-09 13:30N 33°38' W 118°14'510.1
2018-Jul-09 13:00N 33°42' W 118°11'3 6.0
2018-Jul-09 12:30N 33°45' W 118°13'1 1.4
2018-Jul-09 11:59N 33°46' W 118°13'0 0.0
2018-Jul-09 11:29N 33°46' W 118°13'0 0.0
2018-Jul-09 10:59N 33°46' W 118°13'0 0.0
2018-Jul-09 10:29N 33°46' W 118°13'0 0.0
2018-Jul-09 09:59N 33°46' W 118°13'0 0.0
2018-Jul-09 09:29N 33°46' W 118°13'0 0.0
2018-Jul-09 08:59N 33°46' W 118°13'0 0.0
2018-Jul-09 08:29N 33°46' W 118°13'0 0.0
2018-Jul-09 07:59N 33°46' W 118°13'0 0.0
2018-Jul-09 07:29N 33°46' W 118°13'0 0.0
2018-Jul-09 06:59N 33°46' W 118°13'0 0.0
2018-Jul-09 06:29N 33°46' W 118°13'0 0.0
2018-Jul-09 05:59N 33°46' W 118°13'0 0.0
2018-Jul-09 05:29N 33°46' W 118°13'0 0.0
2018-Jul-09 04:59N 33°46' W 118°13'0 0.0
2018-Jul-09 04:29N 33°46' W 118°13'0 0.0
2018-Jul-09 03:59N 33°46' W 118°13'0 0.0
2018-Jul-09 03:29N 33°46' W 118°13'0 0.0
2018-Jul-09 02:59N 33°46' W 118°13'0 0.0
2018-Jul-09 02:29N 33°46' W 118°13'0 0.0
2018-Jul-09 01:59N 33°46' W 118°13'0 0.0
2018-Jul-09 01:29N 33°46' W 118°13'0 0.0
2018-Jul-09 00:59N 33°46' W 118°13'0 0.0
2018-Jul-09 00:29N 33°46' W 118°13'0 0.0
2018-Jul-08 23:59N 33°46' W 118°13'0 0.0
2018-Jul-08 23:29N 33°46' W 118°13'0 0.0
2018-Jul-08 22:59N 33°46' W 118°13'0 0.0
2018-Jul-08 22:29N 33°46' W 118°13'0 0.0
2018-Jul-08 21:59N 33°46' W 118°13'0 0.0
2018-Jul-08 21:29N 33°46' W 118°13'0 0.0
2018-Jul-08 20:59N 33°46' W 118°13'0 0.0
2018-Jul-08 20:29N 33°46' W 118°13'0 0.0
2018-Jul-08 19:59N 33°46' W 118°13'0 0.0
2018-Jul-08 19:29N 33°46' W 118°13'0 0.0
2018-Jul-08 18:59N 33°46' W 118°13'0 0.0
2018-Jul-08 18:29N 33°46' W 118°13'0 0.0
2018-Jul-08 17:59N 33°46' W 118°13'0 0.0
2018-Jul-08 17:29N 33°46' W 118°13'0 0.0
2018-Jul-08 16:59N 33°46' W 118°13'0 0.0
2018-Jul-08 16:29N 33°46' W 118°13'0 0.0
2018-Jul-08 15:59N 33°46' W 118°13'0 0.0
2018-Jul-08 15:29N 33°46' W 118°13'0 0.0
2018-Jul-08 14:59N 33°46' W 118°13'0 0.1
2018-Jul-08 14:29N 33°46' W 118°13'0 0.0
2018-Jul-08 13:59N 33°46' W 118°13'0 0.0
2018-Jul-08 13:29N 33°46' W 118°13'0 0.0
2018-Jul-08 12:59N 33°46' W 118°13'0 0.1
2018-Jul-08 12:29N 33°46' W 118°13'0 0.1
2018-Jul-08 11:59N 33°46' W 118°13'0 0.0
2018-Jul-08 11:29N 33°46' W 118°13'0 0.0
2018-Jul-08 10:59N 33°46' W 118°13'0 0.0
2018-Jul-08 10:29N 33°46' W 118°13'0 0.0
2018-Jul-08 09:59N 33°46' W 118°13'0 0.0
2018-Jul-08 09:26N 33°46' W 118°13'0 0.1
2018-Jul-08 08:59N 33°46' W 118°13'0 0.0
2018-Jul-08 08:29N 33°46' W 118°13'0 0.1
2018-Jul-08 07:59N 33°46' W 118°13'0 0.1
2018-Jul-08 07:29N 33°46' W 118°13'0 0.0
2018-Jul-08 06:59N 33°46' W 118°13'0 0.0
2018-Jul-08 06:29N 33°46' W 118°13'0 0.0
2018-Jul-08 05:59N 33°46' W 118°13'0 0.0
2018-Jul-08 05:29N 33°46' W 118°13'0 0.1
2018-Jul-08 04:59N 33°46' W 118°13'0 0.1
2018-Jul-08 04:29N 33°46' W 118°13'0 0.1
2018-Jul-08 03:59N 33°46' W 118°13'0 0.0
2018-Jul-08 03:29N 33°46' W 118°13'0 0.0
2018-Jul-08 02:59N 33°46' W 118°13'0 0.0
2018-Jul-08 02:29N 33°46' W 118°13'0 0.0
2018-Jul-08 01:59N 33°46' W 118°13'0 0.0
2018-Jul-08 01:29N 33°46' W 118°13'0 0.0
2018-Jul-08 00:59N 33°46' W 118°13'0 0.0
2018-Jul-08 00:29N 33°46' W 118°13'0 0.0
2018-Jul-07 23:59N 33°46' W 118°13'0 0.0
2018-Jul-07 23:29N 33°46' W 118°13'0 0.0
2018-Jul-07 22:59N 33°46' W 118°13'0 0.0
2018-Jul-07 22:29N 33°46' W 118°13'0 0.0
2018-Jul-07 21:59N 33°46' W 118°13'0 0.1
2018-Jul-07 21:31N 33°46' W 118°13'0 0.0
2018-Jul-07 21:01N 33°46' W 118°13'0 0.0
2018-Jul-07 20:28N 33°46' W 118°13'0 0.0
2018-Jul-07 19:58N 33°46' W 118°13'0 0.0
2018-Jul-07 19:31N 33°46' W 118°13'0 0.1
2018-Jul-07 19:01N 33°46' W 118°13'0 0.0
2018-Jul-07 18:28N 33°46' W 118°13'0 0.0
2018-Jul-07 17:58N 33°46' W 118°13'0 0.0
2018-Jul-07 17:28N 33°46' W 118°13'0 0.0
2018-Jul-07 16:58N 33°46' W 118°13'0 0.0
2018-Jul-07 16:28N 33°46' W 118°13'0 0.0
2018-Jul-07 15:58N 33°46' W 118°13'0 0.0
2018-Jul-07 15:31N 33°46' W 118°13'0 0.0
2018-Jul-07 15:01N 33°46' W 118°13'0 0.0
2018-Jul-07 14:31N 33°46' W 118°13'0 0.0
2018-Jul-07 14:01N 33°46' W 118°13'0 0.0
2018-Jul-07 13:28N 33°46' W 118°13'0 0.0
2018-Jul-07 13:01N 33°46' W 118°13'0 0.0
2018-Jul-07 12:31N 33°46' W 118°13'0 0.1
2018-Jul-07 11:58N 33°46' W 118°13'0 0.0
2018-Jul-07 11:28N 33°46' W 118°13'0 0.0
2018-Jul-07 10:58N 33°46' W 118°13'0 0.0
2018-Jul-07 10:28N 33°46' W 118°13'0 0.0
2018-Jul-07 10:01N 33°46' W 118°13'0 0.0
2018-Jul-07 09:31N 33°46' W 118°13'0 0.0
2018-Jul-07 08:58N 33°46' W 118°13'0 0.0
2018-Jul-07 08:31N 33°46' W 118°13'0 0.0
2018-Jul-07 08:01N 33°46' W 118°13'0 0.0
2018-Jul-07 07:28N 33°46' W 118°13'0 0.0
2018-Jul-07 06:58N 33°46' W 118°13'0 0.0
2018-Jul-07 06:31N 33°46' W 118°13'0 0.0
2018-Jul-07 05:58N 33°46' W 118°13'0 0.0
2018-Jul-07 05:31N 33°46' W 118°13'0 0.0
2018-Jul-07 04:58N 33°46' W 118°13'0 0.1
2018-Jul-07 04:31N 33°46' W 118°13'0 0.0
2018-Jul-07 04:01N 33°46' W 118°13'0 0.0
2018-Jul-07 03:31N 33°46' W 118°13'0 0.0
2018-Jul-07 03:01N 33°46' W 118°13'0 0.0
2018-Jul-07 02:28N 33°46' W 118°13'0 0.1
2018-Jul-07 01:58N 33°46' W 118°13'0 0.0
2018-Jul-07 01:28N 33°46' W 118°13'0 0.0
2018-Jul-07 01:01N 33°46' W 118°13'0 0.0
2018-Jul-07 00:31N 33°46' W 118°13'0 0.1
2018-Jul-07 00:01N 33°46' W 118°13'0 0.0
2018-Jul-06 23:28N 33°46' W 118°13'0 0.0
2018-Jul-06 22:58N 33°46' W 118°13'0 0.0
2018-Jul-06 22:31N 33°46' W 118°13'0 0.0
2018-Jul-06 22:01N 33°46' W 118°13'0 0.0
2018-Jul-06 21:31N 33°46' W 118°13'0 0.0
2018-Jul-06 20:58N 33°46' W 118°13'0 0.0
2018-Jul-06 20:31N 33°46' W 118°13'0 0.0
2018-Jul-06 19:58N 33°46' W 118°13'0 0.1
2018-Jul-06 19:31N 33°46' W 118°13'0 0.1
2018-Jul-06 18:58N 33°46' W 118°13'0 0.1
2018-Jul-06 18:28N 33°46' W 118°13'0 0.1
2018-Jul-06 18:01N 33°46' W 118°13'0 0.0
2018-Jul-06 17:28N 33°46' W 118°13'0 0.0
2018-Jul-06 16:58N 33°46' W 118°13'0 0.0
2018-Jul-06 16:31N 33°46' W 118°13'0 0.0
2018-Jul-06 15:58N 33°46' W 118°13'0 0.0
2018-Jul-06 15:22N 33°46' W 118°13'0 0.0
2018-Jul-06 15:01N 33°46' W 118°13'0 0.0
2018-Jul-06 14:31N 33°46' W 118°13'0 0.0
2018-Jul-06 13:58N 33°46' W 118°13'0 0.0
2018-Jul-06 13:31N 33°46' W 118°13'0 0.0
2018-Jul-06 13:00N 33°46' W 118°13'1 2.8
2018-Jul-06 12:30N 33°44' W 118°12'5 9.5
2018-Jul-06 12:00N 33°40' W 118°11'3 6.5
2018-Jul-06 11:30N 33°37' W 118°13'4 8.8
2018-Jul-06 11:00N 33°35' W 118°18'510.0
2018-Jul-06 10:30N 33°35' W 118°24'4 8.9
2018-Jul-06 10:00N 33°35' W 118°29'0 0.2
2018-Jul-06 09:30N 33°35' W 118°29'0 0.5
2018-Jul-06 09:00N 33°35' W 118°30'2 4.7
2018-Jul-06 08:30N 33°35' W 118°33'5 9.4
2018-Jul-06 08:00N 33°36' W 118°38'611.2
2018-Jul-06 07:30N 33°36' W 118°45'611.1
2018-Jul-06 07:00N 33°37' W 118°51'510.2
2018-Jul-06 06:30N 33°37' W 118°58'5 9.9
2018-Jul-06 06:00N 33°38' W 119°03'5 9.9
2018-Jul-06 05:30N 33°38' W 119°09'5 9.8
2018-Jul-06 05:00N 33°38' W 119°15'510.1
2018-Jul-06 04:30N 33°38' W 119°21'510.1
2018-Jul-06 04:00N 33°38' W 119°27'5 9.9
2018-Jul-06 03:30N 33°38' W 119°33'510.0
2018-Jul-06 03:00N 33°38' W 119°39'510.3
2018-Jul-06 02:30N 33°38' W 119°46'510.9
2018-Jul-06 02:00N 33°38' W 119°52'611.3
2018-Jul-06 01:30N 33°38' W 119°59'511.0
2018-Jul-06 01:00N 33°38' W 120°06'510.8
2018-Jul-06 00:30N 33°38' W 120°12'510.2
2018-Jul-06 00:00N 33°38' W 120°18'510.6
2018-Jul-05 23:30N 33°38' W 120°24'510.6
2018-Jul-05 23:00N 33°38' W 120°31'510.7
2018-Jul-05 22:30N 33°38' W 120°37'612.4
2018-Jul-05 22:00N 33°38' W 120°45'612.4
2018-Jul-05 21:31N 33°38' W 120°52'612.1
2018-Jul-05 21:00N 33°38' W 120°60'612.3
2018-Jul-05 20:30N 33°38' W 121°07'612.1
2018-Jul-05 20:00N 33°38' W 121°14'612.1
2018-Jul-05 19:30N 33°38' W 121°21'612.1
2018-Jul-05 19:00N 33°38' W 121°29'612.0
2018-Jul-05 18:30N 33°38' W 121°36'611.6
2018-Jul-05 18:00N 33°38' W 121°43'4 7.1
2018-Jul-05 17:30N 33°38' W 121°47'612.6
2018-Jul-05 17:00N 33°38' W 121°55'612.6
2018-Jul-05 16:30N 33°38' W 122°02'612.4
2018-Jul-05 16:00N 33°38' W 122°10'612.4
2018-Jul-05 15:30N 33°38' W 122°17'612.8
2018-Jul-05 15:00N 33°38' W 122°25'612.8
2018-Jul-05 14:30N 33°38' W 122°32'1313.0
2018-Jul-05 13:30N 33°38' W 122°48'713.8
2018-Jul-05 13:00N 33°38' W 122°56'713.4
2018-Jul-05 12:30N 33°38' W 123°05'713.5
2018-Jul-05 12:00N 33°38' W 123°13'713.5
2018-Jul-05 11:30N 33°38' W 123°21'713.7
2018-Jul-05 11:00N 33°38' W 123°29'713.9
2018-Jul-05 10:30N 33°38' W 123°37'813.5
2018-Jul-05 09:55N 33°37' W 123°47'513.4
2018-Jul-05 09:30N 33°37' W 123°53'713.4
2018-Jul-05 09:00N 33°37' W 124°01'713.2
2018-Jul-05 08:30N 33°37' W 124°09'713.1
2018-Jul-05 08:01N 33°37' W 124°17'713.0
2018-Jul-05 07:30N 33°38' W 124°25'713.8
2018-Jul-05 07:00N 33°39' W 124°33'815.1
2018-Jul-05 06:30N 33°43' W 124°41'815.4
2018-Jul-05 05:58N 33°48' W 124°49'715.3
2018-Jul-05 05:31N 33°52' W 124°56'815.3
2018-Jul-05 05:01N 33°56' W 125°04'815.3
2018-Jul-05 04:31N 33°60' W 125°12'815.5
2018-Jul-05 04:01N 34°04' W 125°20'815.4
2018-Jul-05 03:31N 34°08' W 125°28'815.3
2018-Jul-05 03:00N 34°12' W 125°36'815.2
2018-Jul-05 02:30N 34°16' W 125°44'815.3
2018-Jul-05 02:00N 34°20' W 125°51'815.2
2018-Jul-05 01:30N 34°24' W 125°59'815.3
2018-Jul-05 00:58N 34°28' W 126°08'715.4
2018-Jul-05 00:31N 34°32' W 126°15'815.5
2018-Jul-05 00:00N 34°36' W 126°23'815.6
2018-Jul-04 23:30N 34°40' W 126°31'1015.5
2018-Jul-04 22:52N 34°45' W 126°42'615.5
2018-Jul-04 22:30N 34°48' W 126°48'1015.5
2018-Jul-04 21:53N 34°53' W 126°58'1715.6
2018-Jul-04 20:46N 35°02' W 127°16'2215.7
2018-Jul-04 19:22N 35°13' W 127°39'815.6
2018-Jul-04 18:52N 35°17' W 127°47'515.5
2018-Jul-04 18:30N 35°20' W 127°53'815.5
2018-Jul-04 18:00N 35°24' W 128°01'815.7
2018-Jul-04 17:30N 35°28' W 128°10'815.7
2018-Jul-04 16:58N 35°32' W 128°19'715.7
2018-Jul-04 16:30N 35°36' W 128°26'815.5
2018-Jul-04 16:00N 35°40' W 128°34'815.4
2018-Jul-04 15:30N 35°43' W 128°43'815.3
2018-Jul-04 15:00N 35°47' W 128°51'815.3
2018-Jul-04 14:30N 35°51' W 128°59'1115.1
2018-Jul-04 13:45N 35°56' W 129°11'415.1
2018-Jul-04 13:30N 35°58' W 129°15'2915.2
2018-Jul-04 11:35N 36°12' W 129°47'115.1
2018-Jul-04 11:30N 36°13' W 129°48'1415.3
2018-Jul-04 10:34N 36°20' W 130°04'115.6
2018-Jul-04 10:30N 36°20' W 130°05'3215.4
2018-Jul-04 08:24N 36°36' W 130°40'7015.6
2018-Jul-04 03:55N 37°09' W 131°57'615.1
2018-Jul-04 03:30N 37°12' W 132°04'  

Dump ship's entire track history